createdAt,value
2022-09-28T00:00:22.805Z,974.49
2022-09-28T00:01:22.848Z,974.46
2022-09-28T00:02:22.867Z,974.45
2022-09-28T00:03:22.774Z,974.49
2022-09-28T00:04:22.768Z,974.42
2022-09-28T00:05:22.755Z,974.43
2022-09-28T00:06:22.759Z,974.41
2022-09-28T00:07:22.746Z,974.42
2022-09-28T00:08:22.745Z,974.47
2022-09-28T00:09:22.737Z,974.39
2022-09-28T00:10:22.725Z,974.36
2022-09-28T00:11:22.747Z,974.36
2022-09-28T00:12:22.717Z,974.27
2022-09-28T00:13:22.704Z,974.25
2022-09-28T00:14:22.708Z,974.32
2022-09-28T00:15:22.699Z,974.24
2022-09-28T00:16:22.753Z,974.21
2022-09-28T00:17:22.672Z,974.18
2022-09-28T00:18:22.676Z,974.18
2022-09-28T00:19:22.664Z,974.13
2022-09-28T00:20:22.665Z,974.14
2022-09-28T00:21:22.648Z,974.14
2022-09-28T00:22:22.651Z,974.15
2022-09-28T00:23:22.633Z,974.11
2022-09-28T00:24:27.274Z,974.04
2022-09-28T00:25:24.647Z,974.12
2022-09-28T00:26:22.615Z,974.07
2022-09-28T00:27:22.607Z,974.05
2022-09-28T00:28:22.600Z,974.05
2022-09-28T00:29:23.609Z,974.07
2022-09-28T00:30:22.618Z,973.99
2022-09-28T00:31:22.602Z,974.04
2022-09-28T00:32:22.583Z,974.02
2022-09-28T00:33:22.566Z,973.91
2022-09-28T00:34:22.567Z,973.92
2022-09-28T00:35:22.629Z,973.96
2022-09-28T00:36:22.550Z,973.94
2022-09-28T00:37:22.539Z,973.96
2022-09-28T00:38:22.534Z,973.94
2022-09-28T00:39:22.530Z,973.89
2022-09-28T00:40:22.538Z,973.96
2022-09-28T00:41:22.531Z,973.88
2022-09-28T00:42:22.514Z,973.90
2022-09-28T00:43:22.498Z,973.83
2022-09-28T00:44:22.496Z,973.87
2022-09-28T00:45:22.487Z,973.89
2022-09-28T00:46:22.499Z,973.83
2022-09-28T00:47:22.472Z,973.84
2022-09-28T00:48:22.473Z,973.81
2022-09-28T00:49:22.455Z,973.83
2022-09-28T00:50:22.442Z,973.81
2022-09-28T00:51:22.466Z,973.79
2022-09-28T00:52:22.431Z,973.76
2022-09-28T00:53:22.429Z,973.75
2022-09-28T00:54:22.419Z,973.73
2022-09-28T00:55:22.419Z,973.72
2022-09-28T00:56:22.459Z,973.71
2022-09-28T00:57:22.415Z,973.67
2022-09-28T00:58:22.391Z,973.66
2022-09-28T00:59:22.387Z,973.56
2022-09-28T01:00:22.378Z,973.65
2022-09-28T01:01:22.412Z,973.71
2022-09-28T01:02:22.415Z,973.62
2022-09-28T01:03:22.356Z,973.61
2022-09-28T01:04:23.547Z,973.61
2022-09-28T01:05:22.346Z,973.51
2022-09-28T01:06:22.337Z,973.60
2022-09-28T01:07:22.346Z,973.51
2022-09-28T01:08:22.325Z,973.58
2022-09-28T01:09:22.314Z,973.62
2022-09-28T01:10:22.304Z,973.54
2022-09-28T01:11:22.307Z,973.54
2022-09-28T01:12:22.298Z,973.56
2022-09-28T01:13:22.295Z,973.59
2022-09-28T01:14:22.294Z,973.53
2022-09-28T01:15:22.279Z,973.44
2022-09-28T01:16:22.334Z,973.51
2022-09-28T01:17:22.279Z,973.46
2022-09-28T01:18:22.266Z,973.42
2022-09-28T01:19:22.250Z,973.48
2022-09-28T01:20:22.245Z,973.36
2022-09-28T01:21:22.234Z,973.39
2022-09-28T01:22:22.223Z,973.42
2022-09-28T01:23:22.231Z,973.40
2022-09-28T01:24:22.217Z,973.43
2022-09-28T01:25:22.202Z,973.39
2022-09-28T01:26:22.202Z,973.41
2022-09-28T01:27:22.193Z,973.39
2022-09-28T01:28:22.207Z,973.46
2022-09-28T01:29:22.188Z,973.48
2022-09-28T01:30:22.174Z,973.28
2022-09-28T01:31:22.173Z,973.49
2022-09-28T01:32:22.155Z,973.33
2022-09-28T01:33:22.170Z,973.48
2022-09-28T01:34:22.144Z,973.24
2022-09-28T01:35:22.135Z,973.29
2022-09-28T01:36:22.131Z,973.32
2022-09-28T01:37:22.124Z,973.25
2022-09-28T01:38:22.116Z,973.29
2022-09-28T01:39:22.127Z,973.32
2022-09-28T01:40:22.154Z,973.24
2022-09-28T01:41:22.102Z,973.25
2022-09-28T01:42:22.094Z,973.22
2022-09-28T01:43:22.082Z,973.23
2022-09-28T01:44:22.095Z,973.14
2022-09-28T01:45:22.070Z,973.16
2022-09-28T01:46:22.057Z,973.19
2022-09-28T01:47:22.046Z,973.10
2022-09-28T01:48:22.046Z,973.17
2022-09-28T01:49:22.055Z,973.16
2022-09-28T01:50:22.022Z,973.03
2022-09-28T01:51:22.027Z,973.19
2022-09-28T01:52:22.018Z,972.94
2022-09-28T01:53:22.014Z,973.10
2022-09-28T01:54:22.004Z,973.02
2022-09-28T01:55:22.007Z,972.93
2022-09-28T01:56:21.986Z,972.98
2022-09-28T01:57:21.997Z,973.02
2022-09-28T01:58:21.975Z,972.89
2022-09-28T01:59:21.962Z,973.01
2022-09-28T02:00:21.974Z,972.94
2022-09-28T02:01:22.010Z,972.96
2022-09-28T02:02:21.989Z,972.82
2022-09-28T02:03:21.934Z,972.90
2022-09-28T02:04:21.934Z,972.85
2022-09-28T02:05:21.946Z,972.90
2022-09-28T02:06:21.922Z,972.90
2022-09-28T02:07:21.914Z,972.84
2022-09-28T02:08:21.899Z,972.77
2022-09-28T02:09:21.894Z,972.88
2022-09-28T02:10:21.906Z,972.81
2022-09-28T02:11:21.889Z,972.79
2022-09-28T02:12:21.886Z,972.80
2022-09-28T02:13:21.870Z,972.88
2022-09-28T02:14:21.870Z,972.77
2022-09-28T02:15:21.858Z,972.82
2022-09-28T02:16:21.898Z,972.81
2022-09-28T02:17:21.860Z,972.73
2022-09-28T02:18:21.843Z,972.77
2022-09-28T02:19:21.854Z,972.74
2022-09-28T02:20:21.819Z,972.78
2022-09-28T02:21:21.814Z,972.75
2022-09-28T02:22:21.819Z,972.80
2022-09-28T02:23:21.798Z,972.75
2022-09-28T02:24:21.837Z,972.68
2022-09-28T02:25:21.778Z,972.73
2022-09-28T02:26:21.781Z,972.68
2022-09-28T02:27:21.783Z,972.73
2022-09-28T02:28:21.767Z,972.77
2022-09-28T02:29:21.787Z,972.73
2022-09-28T02:30:21.742Z,972.69
2022-09-28T02:31:21.775Z,972.69
2022-09-28T02:32:21.759Z,972.65
2022-09-28T02:33:21.741Z,972.70
2022-09-28T02:34:21.718Z,972.66
2022-09-28T02:35:21.718Z,972.63
2022-09-28T02:36:21.702Z,972.56
2022-09-28T02:37:21.722Z,972.60
2022-09-28T02:38:21.698Z,972.63
2022-09-28T02:39:21.690Z,972.63
2022-09-28T02:40:21.753Z,972.66
2022-09-28T02:41:21.679Z,972.61
2022-09-28T02:42:21.678Z,972.58
2022-09-28T02:43:21.675Z,972.54
2022-09-28T02:44:21.659Z,972.59
2022-09-28T02:45:21.642Z,972.52
2022-09-28T02:46:21.646Z,972.49
2022-09-28T02:47:21.634Z,972.53
2022-09-28T02:48:41.167Z,972.51
2022-09-28T02:49:23.763Z,972.50
2022-09-28T02:50:21.614Z,972.52
2022-09-28T02:51:21.611Z,972.46
2022-09-28T02:52:21.594Z,972.44
2022-09-28T02:53:21.610Z,972.50
2022-09-28T02:54:21.590Z,972.52
2022-09-28T02:55:21.573Z,972.48
2022-09-28T02:56:21.574Z,972.47
2022-09-28T02:57:21.571Z,972.40
2022-09-28T02:58:21.583Z,972.45
2022-09-28T02:59:21.554Z,972.45
2022-09-28T03:00:21.546Z,972.45
2022-09-28T03:01:21.612Z,972.42
2022-09-28T03:02:21.556Z,972.40
2022-09-28T03:03:21.533Z,972.41
2022-09-28T03:04:22.533Z,972.37
2022-09-28T03:05:21.493Z,972.41
2022-09-28T03:06:22.510Z,972.37
2022-09-28T03:07:21.502Z,972.36
2022-09-28T03:08:21.511Z,972.37
2022-09-28T03:09:21.489Z,972.36
2022-09-28T03:10:21.474Z,972.35
2022-09-28T03:11:21.475Z,972.29
2022-09-28T03:12:21.478Z,972.32
2022-09-28T03:13:21.473Z,972.31
2022-09-28T03:14:21.445Z,972.31
2022-09-28T03:15:21.450Z,972.30
2022-09-28T03:16:21.496Z,972.27
2022-09-28T03:17:21.431Z,972.30
2022-09-28T03:18:21.426Z,972.30
2022-09-28T03:19:21.433Z,972.30
2022-09-28T03:20:21.408Z,972.27
2022-09-28T03:21:21.397Z,972.26
2022-09-28T03:22:21.397Z,972.27
2022-09-28T03:23:25.455Z,972.26
2022-09-28T03:24:22.394Z,972.25
2022-09-28T03:25:21.375Z,972.24
2022-09-28T03:26:21.370Z,972.24
2022-09-28T03:27:21.354Z,972.23
2022-09-28T03:28:21.356Z,972.23
2022-09-28T03:29:21.358Z,972.22
2022-09-28T03:30:21.334Z,972.27
2022-09-28T03:31:21.369Z,972.28
2022-09-28T03:32:21.329Z,972.24
2022-09-28T03:33:21.321Z,972.28
2022-09-28T03:34:21.325Z,972.23
2022-09-28T03:35:21.306Z,972.22
2022-09-28T03:36:21.302Z,972.20
2022-09-28T03:37:21.286Z,972.14
2022-09-28T03:38:21.314Z,972.17
2022-09-28T03:39:21.282Z,972.18
2022-09-28T03:40:21.301Z,972.19
2022-09-28T03:41:21.265Z,972.19
2022-09-28T03:42:21.253Z,972.14
2022-09-28T03:43:21.254Z,972.18
2022-09-28T03:44:21.234Z,972.16
2022-09-28T03:45:21.234Z,972.11
2022-09-28T03:46:21.328Z,972.12
2022-09-28T03:47:21.218Z,972.15
2022-09-28T03:48:25.041Z,972.09
2022-09-28T03:49:23.201Z,972.15
2022-09-28T03:50:21.195Z,972.03
2022-09-28T03:51:21.205Z,972.13
2022-09-28T03:52:21.193Z,972.09
2022-09-28T03:53:21.175Z,972.04
2022-09-28T03:54:21.173Z,972.02
2022-09-28T03:55:21.178Z,972.06
2022-09-28T03:56:21.165Z,972.07
2022-09-28T03:57:21.158Z,972.05
2022-09-28T03:58:21.136Z,972.04
2022-09-28T03:59:21.141Z,972.00
2022-09-28T04:00:21.133Z,972.01
2022-09-28T04:01:21.170Z,972.00
2022-09-28T04:02:21.164Z,971.97
2022-09-28T04:03:21.102Z,971.98
2022-09-28T04:04:21.094Z,971.96
2022-09-28T04:05:21.093Z,971.93
2022-09-28T04:06:21.117Z,971.97
2022-09-28T04:07:21.071Z,971.96
2022-09-28T04:08:22.057Z,971.96
2022-09-28T04:09:21.053Z,971.93
2022-09-28T04:10:21.049Z,971.86
2022-09-28T04:11:21.053Z,971.91
2022-09-28T04:12:21.041Z,971.92
2022-09-28T04:13:21.035Z,971.92
2022-09-28T04:14:21.021Z,971.94
2022-09-28T04:15:21.018Z,971.93
2022-09-28T04:16:21.072Z,971.91
2022-09-28T04:17:21.001Z,971.92
2022-09-28T04:18:21.002Z,971.91
2022-09-28T04:19:21.032Z,971.91
2022-09-28T04:20:21.006Z,971.87
2022-09-28T04:21:21.100Z,971.94
2022-09-28T04:22:20.964Z,971.91
2022-09-28T04:23:20.957Z,971.91
2022-09-28T04:24:20.949Z,971.93
2022-09-28T04:25:20.953Z,971.97
2022-09-28T04:26:20.945Z,971.96
2022-09-28T04:27:20.937Z,971.93
2022-09-28T04:28:20.929Z,972.01
2022-09-28T04:29:21.126Z,971.96
2022-09-28T04:30:20.911Z,971.94
2022-09-28T04:31:20.918Z,971.97
2022-09-28T04:32:20.918Z,971.96
2022-09-28T04:33:20.893Z,971.95
2022-09-28T04:34:20.875Z,971.98
2022-09-28T04:35:20.886Z,971.93
2022-09-28T04:36:20.861Z,972.00
2022-09-28T04:37:20.865Z,971.97
2022-09-28T04:38:35.901Z,971.97
2022-09-28T04:39:22.849Z,971.99
2022-09-28T04:40:20.856Z,972.03
2022-09-28T04:41:20.845Z,972.00
2022-09-28T04:42:20.865Z,972.00
2022-09-28T04:43:20.814Z,972.05
2022-09-28T04:44:20.813Z,972.06
2022-09-28T04:45:20.821Z,972.05
2022-09-28T04:46:20.821Z,972.05
2022-09-28T04:47:20.813Z,971.98
2022-09-28T04:48:20.781Z,971.97
2022-09-28T04:49:20.785Z,971.97
2022-09-28T04:50:20.770Z,971.99
2022-09-28T04:51:20.761Z,971.93
2022-09-28T04:52:20.753Z,972.03
2022-09-28T04:53:20.793Z,971.97
2022-09-28T04:54:20.741Z,972.01
2022-09-28T04:55:20.734Z,971.97
2022-09-28T04:56:20.725Z,972.00
2022-09-28T04:57:20.718Z,972.02
2022-09-28T04:58:20.721Z,971.99
2022-09-28T04:59:20.693Z,972.06
2022-09-28T05:00:20.705Z,971.98
2022-09-28T05:01:20.764Z,971.97
2022-09-28T05:02:20.705Z,972.01
2022-09-28T05:03:20.677Z,971.99
2022-09-28T05:04:25.639Z,971.99
2022-09-28T05:05:22.657Z,972.03
2022-09-28T05:06:20.649Z,972.01
2022-09-28T05:07:20.651Z,972.10
2022-09-28T05:08:20.644Z,972.02
2022-09-28T05:09:20.658Z,972.07
2022-09-28T05:10:20.625Z,972.10
2022-09-28T05:11:20.629Z,972.07
2022-09-28T05:12:20.612Z,972.06
2022-09-28T05:13:20.604Z,972.12
2022-09-28T05:14:20.593Z,972.06
2022-09-28T05:15:20.613Z,972.10
2022-09-28T05:16:20.683Z,972.13
2022-09-28T05:17:20.589Z,972.11
2022-09-28T05:18:20.582Z,972.12
2022-09-28T05:19:20.567Z,972.07
2022-09-28T05:20:20.578Z,972.12
2022-09-28T05:21:20.549Z,972.13
2022-09-28T05:22:20.541Z,972.16
2022-09-28T05:23:20.542Z,972.15
2022-09-28T05:24:20.545Z,972.19
2022-09-28T05:25:20.534Z,972.18
2022-09-28T05:26:20.524Z,972.18
2022-09-28T05:27:20.551Z,972.18
2022-09-28T05:28:20.493Z,972.22
2022-09-28T05:29:20.500Z,972.16
2022-09-28T05:30:20.505Z,972.20
2022-09-28T05:31:20.519Z,972.18
2022-09-28T05:32:20.474Z,972.15
2022-09-28T05:33:20.470Z,972.14
2022-09-28T05:34:20.448Z,972.18
2022-09-28T05:35:20.480Z,972.21
2022-09-28T05:36:20.460Z,972.26
2022-09-28T05:37:20.452Z,972.26
2022-09-28T05:38:20.436Z,972.18
2022-09-28T05:39:20.436Z,972.18
2022-09-28T05:40:20.490Z,972.24
2022-09-28T05:41:20.416Z,972.22
2022-09-28T05:42:20.408Z,972.23
2022-09-28T05:43:20.409Z,972.28
2022-09-28T05:44:20.423Z,972.24
2022-09-28T05:45:20.401Z,972.28
2022-09-28T05:46:20.475Z,972.32
2022-09-28T05:47:20.400Z,972.28
2022-09-28T05:48:20.364Z,972.33
2022-09-28T05:49:20.360Z,972.34
2022-09-28T05:50:20.354Z,972.27
2022-09-28T05:51:20.344Z,972.28
2022-09-28T05:52:20.360Z,972.41
2022-09-28T05:53:20.331Z,972.38
2022-09-28T05:54:20.488Z,972.34
2022-09-28T05:55:20.318Z,972.36
2022-09-28T05:56:20.304Z,972.45
2022-09-28T05:57:20.301Z,972.31
2022-09-28T05:58:20.316Z,972.36
2022-09-28T05:59:20.282Z,972.38
2022-09-28T06:00:20.288Z,972.42
2022-09-28T06:01:20.320Z,972.42
2022-09-28T06:02:20.328Z,972.39
2022-09-28T06:03:20.276Z,972.41
2022-09-28T06:04:20.260Z,972.45
2022-09-28T06:05:20.244Z,972.40
2022-09-28T06:06:20.240Z,972.45
2022-09-28T06:07:20.241Z,972.40
2022-09-28T06:08:20.217Z,972.42
2022-09-28T06:09:25.142Z,972.41
2022-09-28T06:10:21.212Z,972.41
2022-09-28T06:11:21.200Z,972.40
2022-09-28T06:12:20.197Z,972.45
2022-09-28T06:13:20.192Z,972.41
2022-09-28T06:14:20.196Z,972.45
2022-09-28T06:15:20.185Z,972.48
2022-09-28T06:16:20.224Z,972.49
2022-09-28T06:17:20.178Z,972.45
2022-09-28T06:18:20.185Z,972.51
2022-09-28T06:19:20.152Z,972.50
2022-09-28T06:20:20.156Z,972.44
2022-09-28T06:21:20.133Z,972.49
2022-09-28T06:22:20.130Z,972.53
2022-09-28T06:23:20.124Z,972.53
2022-09-28T06:24:20.116Z,972.53
2022-09-28T06:25:20.124Z,972.50
2022-09-28T06:26:20.088Z,972.53
2022-09-28T06:27:20.100Z,972.51
2022-09-28T06:28:20.084Z,972.56
2022-09-28T06:29:20.091Z,972.57
2022-09-28T06:30:20.093Z,972.57
2022-09-28T06:31:20.126Z,972.59
2022-09-28T06:32:20.047Z,972.65
2022-09-28T06:33:20.052Z,972.53
2022-09-28T06:34:20.056Z,972.54
2022-09-28T06:35:20.049Z,972.63
2022-09-28T06:36:20.036Z,972.61
2022-09-28T06:37:20.038Z,972.55
2022-09-28T06:38:20.020Z,972.65
2022-09-28T06:39:20.012Z,972.59
2022-09-28T06:40:20.077Z,972.60
2022-09-28T06:41:19.988Z,972.63
2022-09-28T06:42:20.000Z,972.64
2022-09-28T06:43:19.992Z,972.63
2022-09-28T06:44:19.992Z,972.64
2022-09-28T06:45:20.007Z,972.67
2022-09-28T06:46:20.071Z,972.72
2022-09-28T06:47:19.956Z,972.66
2022-09-28T06:48:19.965Z,972.67
2022-09-28T06:49:19.956Z,972.71
2022-09-28T06:50:19.939Z,972.68
2022-09-28T06:51:19.928Z,972.69
2022-09-28T06:52:19.937Z,972.66
2022-09-28T06:53:19.911Z,972.70
2022-09-28T06:54:19.911Z,972.72
2022-09-28T06:55:19.909Z,972.72
2022-09-28T06:56:19.919Z,972.64
2022-09-28T06:57:19.897Z,972.69
2022-09-28T06:58:19.889Z,972.70
2022-09-28T06:59:19.892Z,972.70
2022-09-28T07:00:19.870Z,972.72
2022-09-28T07:01:19.953Z,972.73
2022-09-28T07:02:19.887Z,972.71
2022-09-28T07:03:19.853Z,972.78
2022-09-28T07:04:19.848Z,972.72
2022-09-28T07:05:19.847Z,972.76
2022-09-28T07:06:19.839Z,972.72
2022-09-28T07:07:19.837Z,972.78
2022-09-28T07:08:19.828Z,972.75
2022-09-28T07:09:31.489Z,972.73
2022-09-28T07:10:21.809Z,972.78
2022-09-28T07:11:19.816Z,972.76
2022-09-28T07:12:19.792Z,972.86
2022-09-28T07:13:46.331Z,972.82
2022-09-28T07:14:42.914Z,972.83
2022-09-28T07:15:21.771Z,972.90
2022-09-28T07:16:25.659Z,972.90
2022-09-28T07:17:20.826Z,972.84
2022-09-28T07:18:19.821Z,972.80
2022-09-28T07:19:19.744Z,972.87
2022-09-28T07:20:20.034Z,972.88
2022-09-28T07:21:29.201Z,972.93
2022-09-28T07:22:31.972Z,973.00
2022-09-28T07:23:21.721Z,972.99
2022-09-28T07:24:20.235Z,972.99
2022-09-28T07:25:19.700Z,972.85
2022-09-28T07:26:23.185Z,972.87
2022-09-28T07:27:22.553Z,972.88
2022-09-28T07:28:19.712Z,972.89
2022-09-28T07:29:19.685Z,972.88
2022-09-28T07:30:19.676Z,972.91
2022-09-28T07:31:19.709Z,972.93
2022-09-28T07:32:19.666Z,972.94
2022-09-28T07:33:19.659Z,972.89
2022-09-28T07:34:19.647Z,972.95
2022-09-28T07:35:20.667Z,973.00
2022-09-28T07:36:19.636Z,973.04
2022-09-28T07:37:19.643Z,973.11
2022-09-28T07:38:19.636Z,973.10
2022-09-28T07:39:19.617Z,973.07
2022-09-28T07:40:19.697Z,972.93
2022-09-28T07:41:19.608Z,972.95
2022-09-28T07:42:19.593Z,972.92
2022-09-28T07:43:19.585Z,972.98
2022-09-28T07:44:19.584Z,972.91
2022-09-28T07:45:19.597Z,972.95
2022-09-28T07:46:19.620Z,972.97
2022-09-28T07:47:19.556Z,972.95
2022-09-28T07:48:19.556Z,973.02
2022-09-28T07:49:19.621Z,973.03
2022-09-28T07:50:19.563Z,973.00
2022-09-28T07:51:19.527Z,973.02
2022-09-28T07:52:19.516Z,973.08
2022-09-28T07:53:19.516Z,973.01
2022-09-28T07:54:19.505Z,973.10
2022-09-28T07:55:19.521Z,973.08
2022-09-28T07:56:19.496Z,973.02
2022-09-28T07:57:19.495Z,973.02
2022-09-28T07:58:19.486Z,973.05
2022-09-28T07:59:19.509Z,973.12
2022-09-28T08:00:19.472Z,973.14
2022-09-28T08:01:19.533Z,973.20
2022-09-28T08:02:19.507Z,973.13
2022-09-28T08:03:19.452Z,973.17
2022-09-28T08:04:19.441Z,973.09
2022-09-28T08:05:19.438Z,973.12
2022-09-28T08:06:19.428Z,973.04
2022-09-28T08:07:23.492Z,973.10
2022-09-28T08:08:20.446Z,973.08
2022-09-28T08:09:19.451Z,973.06
2022-09-28T08:10:19.405Z,973.05
2022-09-28T08:11:19.401Z,973.11
2022-09-28T08:12:19.384Z,973.11
2022-09-28T08:13:21.239Z,973.13
2022-09-28T08:14:19.384Z,973.11
2022-09-28T08:15:19.364Z,973.09
2022-09-28T08:16:19.493Z,973.14
2022-09-28T08:17:19.352Z,973.19
2022-09-28T08:18:19.344Z,973.22
2022-09-28T08:19:19.521Z,973.20
2022-09-28T08:20:19.328Z,973.27
2022-09-28T08:21:19.332Z,973.22
2022-09-28T08:22:19.337Z,973.21
2022-09-28T08:23:19.303Z,973.28
2022-09-28T08:24:19.490Z,973.36
2022-09-28T08:25:19.296Z,973.29
2022-09-28T08:26:19.288Z,973.31
2022-09-28T08:27:19.292Z,973.34
2022-09-28T08:28:19.280Z,973.33
2022-09-28T08:29:19.260Z,973.28
2022-09-28T08:30:19.256Z,973.27
2022-09-28T08:31:19.310Z,973.28
2022-09-28T08:32:19.232Z,973.32
2022-09-28T08:33:20.251Z,973.37
2022-09-28T08:34:19.375Z,973.34
2022-09-28T08:35:19.228Z,973.32
2022-09-28T08:36:19.229Z,973.44
2022-09-28T08:37:19.205Z,973.40
2022-09-28T08:38:19.203Z,973.44
2022-09-28T08:39:19.199Z,973.46
2022-09-28T08:40:19.240Z,973.43
2022-09-28T08:41:19.187Z,973.42
2022-09-28T08:42:19.178Z,973.47
2022-09-28T08:43:19.166Z,973.41
2022-09-28T08:44:19.152Z,973.43
2022-09-28T08:45:19.194Z,973.45
2022-09-28T08:46:22.699Z,973.42
2022-09-28T08:47:20.136Z,973.43
2022-09-28T08:48:19.128Z,973.39
2022-09-28T08:49:25.478Z,973.43
2022-09-28T08:50:21.137Z,973.47
2022-09-28T08:51:19.104Z,973.50
2022-09-28T08:52:19.123Z,973.45
2022-09-28T08:53:19.083Z,973.53
2022-09-28T08:54:19.126Z,973.47
2022-09-28T08:55:19.082Z,973.44
2022-09-28T08:56:19.077Z,973.52
2022-09-28T08:57:19.075Z,973.46
2022-09-28T08:58:19.058Z,973.49
2022-09-28T08:59:19.048Z,973.48
2022-09-28T09:00:19.035Z,973.50
2022-09-28T09:01:19.089Z,973.54
2022-09-28T09:02:19.075Z,973.51
2022-09-28T09:03:19.023Z,973.59
2022-09-28T09:04:19.152Z,973.57
2022-09-28T09:05:19.008Z,973.62
2022-09-28T09:06:18.999Z,973.66
2022-09-28T09:07:18.991Z,973.67
2022-09-28T09:08:18.993Z,973.65
2022-09-28T09:09:18.979Z,973.70
2022-09-28T09:10:18.967Z,973.67
2022-09-28T09:11:18.957Z,973.69
2022-09-28T09:12:18.960Z,973.70
2022-09-28T09:13:18.959Z,973.66
2022-09-28T09:14:18.974Z,973.71
2022-09-28T09:15:18.915Z,973.76
2022-09-28T09:16:19.003Z,973.75
2022-09-28T09:17:18.916Z,973.72
2022-09-28T09:18:20.000Z,973.89
2022-09-28T09:19:19.903Z,973.87
2022-09-28T09:20:18.880Z,973.75
2022-09-28T09:21:18.879Z,973.66
2022-09-28T09:22:18.887Z,973.67
2022-09-28T09:23:18.863Z,973.80
2022-09-28T09:24:19.021Z,973.69
2022-09-28T09:25:18.862Z,973.70
2022-09-28T09:26:23.755Z,973.72
2022-09-28T09:27:20.835Z,973.60
2022-09-28T09:28:18.827Z,973.75
2022-09-28T09:29:18.848Z,973.76
2022-09-28T09:30:20.405Z,973.52
2022-09-28T09:31:48.736Z,973.72
2022-09-28T09:32:49.755Z,973.61
2022-09-28T09:33:49.741Z,973.59
2022-09-28T09:34:49.760Z,973.58
2022-09-28T09:35:49.731Z,973.53
2022-09-28T09:36:49.747Z,973.51
2022-09-28T09:37:49.810Z,973.53
2022-09-28T09:38:49.700Z,973.53
2022-09-28T09:39:49.716Z,973.47
2022-09-28T09:40:49.853Z,973.49
2022-09-28T09:41:49.711Z,973.46
2022-09-28T09:42:49.688Z,973.52
2022-09-28T09:43:49.683Z,973.53
2022-09-28T09:44:49.745Z,973.46
2022-09-28T09:45:49.737Z,973.55
2022-09-28T09:46:49.679Z,973.55
2022-09-28T09:47:49.642Z,973.62
2022-09-28T09:48:49.643Z,973.65
2022-09-28T09:49:49.652Z,973.74
2022-09-28T09:50:49.632Z,973.80
2022-09-28T09:51:49.616Z,973.85
2022-09-28T09:52:49.645Z,973.86
2022-09-28T09:53:49.607Z,973.89
2022-09-28T09:54:49.599Z,973.92
2022-09-28T09:55:49.604Z,973.88
2022-09-28T09:56:49.596Z,973.95
2022-09-28T09:57:49.600Z,973.97
2022-09-28T09:58:49.578Z,974.00
2022-09-28T09:59:49.571Z,973.91
2022-09-28T10:00:49.555Z,973.97
2022-09-28T10:01:49.618Z,973.88
2022-09-28T10:02:49.644Z,973.92
2022-09-28T10:03:49.539Z,973.93
2022-09-28T10:04:49.552Z,973.88
2022-09-28T10:05:49.526Z,973.90
2022-09-28T10:06:49.524Z,973.93
2022-09-28T10:22:07.247Z,974.01
2022-09-28T10:23:08.332Z,974.13
2022-09-28T10:24:08.320Z,973.90
2022-09-28T10:25:08.310Z,974.06
2022-09-28T10:26:08.290Z,973.92
2022-09-28T10:27:08.299Z,973.89
2022-09-28T10:28:08.302Z,973.80
2022-09-28T10:29:08.283Z,973.75
2022-09-28T10:30:08.277Z,973.86
2022-09-28T10:32:08.260Z,973.83
2022-09-28T10:33:08.275Z,973.83
2022-09-28T10:34:08.252Z,973.68
2022-09-28T10:35:08.242Z,973.68
2022-09-28T10:36:08.244Z,973.65
2022-09-28T10:37:08.230Z,973.74
2022-09-28T10:38:08.233Z,973.70
2022-09-28T10:39:08.231Z,973.70
2022-09-28T10:40:08.211Z,973.73
2022-09-28T10:41:08.311Z,973.78
2022-09-28T10:42:08.198Z,973.72
2022-09-28T10:43:08.203Z,973.73
2022-09-28T10:44:08.195Z,973.80
2022-09-28T10:45:08.174Z,973.98
2022-09-28T10:46:08.278Z,973.97
2022-09-28T10:47:08.158Z,973.94
2022-09-28T10:48:08.154Z,973.94
2022-09-28T10:49:08.167Z,973.95
2022-09-28T10:50:08.143Z,974.04
2022-09-28T10:51:08.132Z,973.98
2022-09-28T10:52:08.126Z,973.99
2022-09-28T10:53:08.127Z,973.85
2022-09-28T10:54:08.111Z,973.72
2022-09-28T10:55:08.119Z,973.76
2022-09-28T10:56:08.106Z,973.69
2022-09-28T10:57:12.752Z,973.67
2022-09-28T10:58:09.095Z,973.63
2022-09-28T10:59:08.088Z,973.67
2022-09-28T11:00:08.079Z,973.63
2022-09-28T11:01:08.156Z,973.60
2022-09-28T11:02:08.132Z,973.63
2022-09-28T11:03:08.047Z,973.66
2022-09-28T11:04:08.067Z,973.69
2022-09-28T11:05:08.036Z,973.66
2022-09-28T11:06:08.034Z,973.62
2022-09-28T11:07:08.027Z,973.67
2022-09-28T11:08:08.030Z,973.71
2022-09-28T11:09:08.014Z,973.73
2022-09-28T11:10:08.019Z,973.65
2022-09-28T11:11:07.995Z,973.79
2022-09-28T11:12:07.990Z,973.75
2022-09-28T11:13:07.983Z,973.62
2022-09-28T11:14:07.971Z,973.70
2022-09-28T11:15:07.967Z,973.69
2022-09-28T11:16:07.959Z,973.66
2022-09-28T11:17:08.006Z,973.72
2022-09-28T11:18:07.974Z,973.69
2022-09-28T11:19:07.939Z,973.65
2022-09-28T11:20:07.946Z,973.71
2022-09-28T11:21:11.274Z,973.67
2022-09-28T11:22:11.534Z,973.68
2022-09-28T11:23:07.938Z,973.71
2022-09-28T11:24:07.908Z,973.74
2022-09-28T11:25:07.897Z,973.78
2022-09-28T11:26:07.898Z,973.81
2022-09-28T11:27:07.882Z,973.76
2022-09-28T11:28:07.886Z,973.76
2022-09-28T11:29:07.882Z,973.76
2022-09-28T11:30:08.878Z,973.77
2022-09-28T11:31:08.047Z,973.78
2022-09-28T11:32:09.605Z,973.86
2022-09-28T11:33:07.859Z,973.85
2022-09-28T11:34:07.842Z,973.86
2022-09-28T11:35:07.833Z,973.89
2022-09-28T11:36:07.823Z,973.86
2022-09-28T11:37:07.820Z,973.90
2022-09-28T11:38:07.818Z,973.88
2022-09-28T11:39:07.810Z,973.86
2022-09-28T11:40:07.798Z,973.93
2022-09-28T11:41:07.779Z,973.92
2022-09-28T11:42:07.791Z,973.95
2022-09-28T11:43:07.780Z,973.95
2022-09-28T11:44:07.787Z,974.05
2022-09-28T11:45:07.762Z,974.08
2022-09-28T11:46:07.798Z,973.97
2022-09-28T11:47:07.750Z,974.01
2022-09-28T11:48:07.750Z,974.09
2022-09-28T11:49:07.754Z,974.21
2022-09-28T11:50:07.730Z,973.98
2022-09-28T11:51:07.722Z,973.93
2022-09-28T11:52:07.711Z,974.10
2022-09-28T11:53:07.707Z,974.02
2022-09-28T11:54:07.726Z,974.12
2022-09-28T11:55:07.707Z,974.09
2022-09-28T11:56:09.021Z,974.08
2022-09-28T11:57:08.680Z,974.12
2022-09-28T11:58:07.678Z,974.12
2022-09-28T11:59:07.662Z,974.15
2022-09-28T12:00:07.674Z,974.14
2022-09-28T12:01:07.653Z,973.99
2022-09-28T12:02:07.696Z,973.80
2022-09-28T12:03:07.800Z,973.93
2022-09-28T12:04:07.634Z,973.92
2022-09-28T12:05:07.642Z,973.85
2022-09-28T12:06:07.852Z,973.80
2022-09-28T12:07:07.615Z,973.79
2022-09-28T12:08:07.599Z,973.85
2022-09-28T12:09:07.605Z,973.81
2022-09-28T12:10:07.595Z,973.82
2022-09-28T12:11:07.611Z,973.79
2022-09-28T12:12:07.585Z,973.87
2022-09-28T12:13:07.570Z,973.91
2022-09-28T12:14:07.571Z,973.94
2022-09-28T12:15:07.565Z,973.91
2022-09-28T12:16:27.681Z,973.93
2022-09-28T12:17:09.641Z,973.99
2022-09-28T12:18:07.587Z,973.99
2022-09-28T12:19:07.526Z,973.98
2022-09-28T12:20:07.523Z,974.04
2022-09-28T12:21:07.519Z,973.97
2022-09-28T12:22:07.517Z,974.02
2022-09-28T12:23:07.505Z,974.04
2022-09-28T12:24:07.490Z,974.02
2022-09-28T12:25:07.490Z,974.07
2022-09-28T12:26:07.482Z,974.19
2022-09-28T12:27:07.489Z,974.15
2022-09-28T12:28:07.472Z,974.12
2022-09-28T12:29:07.457Z,974.03
2022-09-28T12:30:07.520Z,974.12
2022-09-28T12:31:07.487Z,974.05
2022-09-28T12:32:07.457Z,974.00
2022-09-28T12:33:07.442Z,973.98
2022-09-28T12:34:07.426Z,973.95
2022-09-28T12:35:07.430Z,974.14
2022-09-28T12:36:07.418Z,974.09
2022-09-28T12:37:07.403Z,974.00
2022-09-28T12:38:07.402Z,973.91
2022-09-28T12:39:35.695Z,973.92
2022-09-28T12:40:09.386Z,973.85
2022-09-28T12:41:07.419Z,973.88
2022-09-28T12:42:07.373Z,973.91
2022-09-28T12:43:07.369Z,973.95
2022-09-28T12:44:07.367Z,973.97